sensor_id;sensor_type;location;lat;lon;timestamp;P1;durP1;ratioP1;P2;durP2;ratioP2
69795;SDS011;57073;45.650;9.612;2023-04-06T00:00:23;13.53;;;7.07;;
69795;SDS011;57073;45.650;9.612;2023-04-06T00:05:23;15.88;;;7.38;;
69795;SDS011;57073;45.650;9.612;2023-04-06T00:10:24;11.53;;;6.30;;
69795;SDS011;57073;45.650;9.612;2023-04-06T00:15:25;13.37;;;6.40;;
69795;SDS011;57073;45.650;9.612;2023-04-06T00:20:26;12.27;;;6.15;;
69795;SDS011;57073;45.650;9.612;2023-04-06T00:25:26;11.83;;;6.13;;
69795;SDS011;57073;45.650;9.612;2023-04-06T00:30:27;10.67;;;5.77;;
69795;SDS011;57073;45.650;9.612;2023-04-06T00:35:27;10.47;;;5.43;;
69795;SDS011;57073;45.650;9.612;2023-04-06T00:40:28;11.80;;;6.30;;
69795;SDS011;57073;45.650;9.612;2023-04-06T00:45:28;12.48;;;5.65;;
69795;SDS011;57073;45.650;9.612;2023-04-06T00:50:29;15.70;;;5.67;;
69795;SDS011;57073;45.650;9.612;2023-04-06T00:55:29;11.03;;;5.50;;
69795;SDS011;57073;45.650;9.612;2023-04-06T01:00:30;11.57;;;6.43;;
69795;SDS011;57073;45.650;9.612;2023-04-06T01:05:33;10.65;;;6.30;;
69795;SDS011;57073;45.650;9.612;2023-04-06T01:10:34;14.30;;;7.00;;
69795;SDS011;57073;45.650;9.612;2023-04-06T01:15:35;11.33;;;6.10;;
69795;SDS011;57073;45.650;9.612;2023-04-06T01:20:38;10.25;;;5.72;;
69795;SDS011;57073;45.650;9.612;2023-04-06T01:25:38;7.50;;;4.43;;
69795;SDS011;57073;45.650;9.612;2023-04-06T01:30:39;9.53;;;5.30;;
69795;SDS011;57073;45.650;9.612;2023-04-06T01:35:40;10.90;;;5.43;;
69795;SDS011;57073;45.650;9.612;2023-04-06T01:40:40;11.53;;;5.80;;
69795;SDS011;57073;45.650;9.612;2023-04-06T01:45:40;13.33;;;6.40;;
69795;SDS011;57073;45.650;9.612;2023-04-06T01:50:41;13.63;;;6.17;;
69795;SDS011;57073;45.650;9.612;2023-04-06T01:55:41;10.30;;;5.73;;
69795;SDS011;57073;45.650;9.612;2023-04-06T02:00:42;12.30;;;6.30;;
69795;SDS011;57073;45.650;9.612;2023-04-06T02:05:42;11.37;;;5.70;;
69795;SDS011;57073;45.650;9.612;2023-04-06T02:10:42;11.00;;;5.27;;
69795;SDS011;57073;45.650;9.612;2023-04-06T02:15:43;9.17;;;5.20;;
69795;SDS011;57073;45.650;9.612;2023-04-06T02:20:43;10.77;;;5.90;;
69795;SDS011;57073;45.650;9.612;2023-04-06T02:25:44;9.57;;;5.20;;
69795;SDS011;57073;45.650;9.612;2023-04-06T02:30:45;10.87;;;5.30;;
69795;SDS011;57073;45.650;9.612;2023-04-06T02:35:46;10.80;;;5.32;;
69795;SDS011;57073;45.650;9.612;2023-04-06T02:40:46;10.17;;;4.80;;
69795;SDS011;57073;45.650;9.612;2023-04-06T02:45:47;8.20;;;4.93;;
69795;SDS011;57073;45.650;9.612;2023-04-06T02:50:47;9.77;;;5.33;;
69795;SDS011;57073;45.650;9.612;2023-04-06T02:55:47;9.73;;;5.40;;
69795;SDS011;57073;45.650;9.612;2023-04-06T03:00:48;9.07;;;4.83;;
69795;SDS011;57073;45.650;9.612;2023-04-06T03:05:48;9.53;;;4.50;;
69795;SDS011;57073;45.650;9.612;2023-04-06T03:10:49;13.47;;;5.03;;
69795;SDS011;57073;45.650;9.612;2023-04-06T03:15:49;9.57;;;5.20;;
69795;SDS011;57073;45.650;9.612;2023-04-06T03:20:50;10.90;;;5.33;;
69795;SDS011;57073;45.650;9.612;2023-04-06T03:25:50;9.57;;;5.03;;
69795;SDS011;57073;45.650;9.612;2023-04-06T03:30:51;10.37;;;5.57;;
69795;SDS011;57073;45.650;9.612;2023-04-06T03:35:51;10.03;;;5.73;;
69795;SDS011;57073;45.650;9.612;2023-04-06T03:40:52;13.53;;;5.73;;
69795;SDS011;57073;45.650;9.612;2023-04-06T03:45:52;14.03;;;6.43;;
69795;SDS011;57073;45.650;9.612;2023-04-06T03:50:52;11.67;;;6.10;;
69795;SDS011;57073;45.650;9.612;2023-04-06T03:55:53;12.17;;;5.23;;
69795;SDS011;57073;45.650;9.612;2023-04-06T04:00:53;12.90;;;4.93;;
69795;SDS011;57073;45.650;9.612;2023-04-06T04:05:54;9.03;;;5.33;;
69795;SDS011;57073;45.650;9.612;2023-04-06T04:10:57;9.90;;;4.93;;
69795;SDS011;57073;45.650;9.612;2023-04-06T04:15:57;9.93;;;4.77;;
69795;SDS011;57073;45.650;9.612;2023-04-06T04:20:58;9.57;;;4.97;;
69795;SDS011;57073;45.650;9.612;2023-04-06T04:25:58;10.30;;;4.93;;
69795;SDS011;57073;45.650;9.612;2023-04-06T04:30:58;8.67;;;4.90;;
69795;SDS011;57073;45.650;9.612;2023-04-06T04:35:59;10.43;;;5.17;;
69795;SDS011;57073;45.650;9.612;2023-04-06T04:40:59;9.17;;;5.07;;
69795;SDS011;57073;45.650;9.612;2023-04-06T04:46:00;13.77;;;6.50;;
69795;SDS011;57073;45.650;9.612;2023-04-06T04:51:00;11.87;;;5.60;;
69795;SDS011;57073;45.650;9.612;2023-04-06T04:56:01;10.82;;;5.70;;
69795;SDS011;57073;45.650;9.612;2023-04-06T05:01:01;13.33;;;6.43;;
69795;SDS011;57073;45.650;9.612;2023-04-06T05:06:02;13.53;;;5.83;;
69795;SDS011;57073;45.650;9.612;2023-04-06T05:11:02;15.93;;;6.47;;
69795;SDS011;57073;45.650;9.612;2023-04-06T05:16:04;14.13;;;6.10;;
69795;SDS011;57073;45.650;9.612;2023-04-06T05:21:04;13.77;;;6.87;;
69795;SDS011;57073;45.650;9.612;2023-04-06T05:26:05;11.10;;;5.60;;
69795;SDS011;57073;45.650;9.612;2023-04-06T05:31:06;14.18;;;5.93;;
69795;SDS011;57073;45.650;9.612;2023-04-06T05:36:06;11.23;;;5.47;;
69795;SDS011;57073;45.650;9.612;2023-04-06T05:41:07;11.13;;;5.37;;
69795;SDS011;57073;45.650;9.612;2023-04-06T05:46:07;10.53;;;6.30;;
69795;SDS011;57073;45.650;9.612;2023-04-06T05:51:08;12.07;;;5.73;;
69795;SDS011;57073;45.650;9.612;2023-04-06T05:56:08;15.13;;;6.07;;
69795;SDS011;57073;45.650;9.612;2023-04-06T06:01:08;11.17;;;5.23;;
69795;SDS011;57073;45.650;9.612;2023-04-06T06:06:09;13.07;;;5.50;;
69795;SDS011;57073;45.650;9.612;2023-04-06T06:11:10;13.77;;;5.67;;
69795;SDS011;57073;45.650;9.612;2023-04-06T06:16:10;11.33;;;6.27;;
69795;SDS011;57073;45.650;9.612;2023-04-06T06:21:10;9.80;;;5.17;;
69795;SDS011;57073;45.650;9.612;2023-04-06T06:26:14;10.07;;;5.47;;
69795;SDS011;57073;45.650;9.612;2023-04-06T06:31:15;9.40;;;5.43;;
69795;SDS011;57073;45.650;9.612;2023-04-06T06:36:16;12.10;;;5.67;;
69795;SDS011;57073;45.650;9.612;2023-04-06T06:41:17;9.68;;;5.55;;
69795;SDS011;57073;45.650;9.612;2023-04-06T06:46:17;10.93;;;5.27;;
69795;SDS011;57073;45.650;9.612;2023-04-06T06:51:18;11.47;;;6.03;;
69795;SDS011;57073;45.650;9.612;2023-04-06T06:56:18;11.70;;;5.53;;
69795;SDS011;57073;45.650;9.612;2023-04-06T07:01:19;10.37;;;5.50;;
69795;SDS011;57073;45.650;9.612;2023-04-06T07:06:19;9.37;;;5.17;;
69795;SDS011;57073;45.650;9.612;2023-04-06T07:11:20;9.43;;;5.33;;
69795;SDS011;57073;45.650;9.612;2023-04-06T07:16:20;10.20;;;5.57;;
69795;SDS011;57073;45.650;9.612;2023-04-06T07:21:21;9.00;;;5.30;;
69795;SDS011;57073;45.650;9.612;2023-04-06T07:26:21;9.37;;;5.80;;
69795;SDS011;57073;45.650;9.612;2023-04-06T07:31:22;8.50;;;5.20;;
69795;SDS011;57073;45.650;9.612;2023-04-06T07:36:22;10.80;;;5.03;;
69795;SDS011;57073;45.650;9.612;2023-04-06T07:41:22;8.73;;;5.50;;
69795;SDS011;57073;45.650;9.612;2023-04-06T07:46:24;8.18;;;4.90;;
69795;SDS011;57073;45.650;9.612;2023-04-06T07:51:24;6.90;;;4.53;;
69795;SDS011;57073;45.650;9.612;2023-04-06T07:56:25;4.50;;;2.92;;
69795;SDS011;57073;45.650;9.612;2023-04-06T08:01:27;4.87;;;2.50;;
69795;SDS011;57073;45.650;9.612;2023-04-06T08:06:28;7.18;;;2.50;;
69795;SDS011;57073;45.650;9.612;2023-04-06T08:11:28;3.83;;;2.10;;
69795;SDS011;57073;45.650;9.612;2023-04-06T08:16:29;5.30;;;2.40;;
69795;SDS011;57073;45.650;9.612;2023-04-06T08:21:30;4.82;;;2.50;;
69795;SDS011;57073;45.650;9.612;2023-04-06T08:26:30;3.47;;;2.30;;
69795;SDS011;57073;45.650;9.612;2023-04-06T08:31:31;4.93;;;2.70;;
69795;SDS011;57073;45.650;9.612;2023-04-06T08:36:31;7.40;;;3.00;;
69795;SDS011;57073;45.650;9.612;2023-04-06T08:41:31;5.77;;;3.07;;
69795;SDS011;57073;45.650;9.612;2023-04-06T08:46:32;5.37;;;3.97;;
69795;SDS011;57073;45.650;9.612;2023-04-06T08:51:32;6.43;;;3.23;;
69795;SDS011;57073;45.650;9.612;2023-04-06T08:56:37;6.68;;;3.55;;
69795;SDS011;57073;45.650;9.612;2023-04-06T09:01:39;5.07;;;3.35;;
69795;SDS011;57073;45.650;9.612;2023-04-06T09:06:43;7.27;;;3.77;;
69795;SDS011;57073;45.650;9.612;2023-04-06T09:11:48;7.63;;;3.83;;
69795;SDS011;57073;45.650;9.612;2023-04-06T09:16:49;6.47;;;3.47;;
69795;SDS011;57073;45.650;9.612;2023-04-06T09:22:00;8.90;;;3.90;;
69795;SDS011;57073;45.650;9.612;2023-04-06T09:27:01;7.13;;;3.47;;
69795;SDS011;57073;45.650;9.612;2023-04-06T09:32:05;6.87;;;4.10;;
69795;SDS011;57073;45.650;9.612;2023-04-06T09:37:16;6.47;;;4.20;;
69795;SDS011;57073;45.650;9.612;2023-04-06T09:42:24;8.20;;;3.93;;
69795;SDS011;57073;45.650;9.612;2023-04-06T09:47:25;9.82;;;4.28;;
69795;SDS011;57073;45.650;9.612;2023-04-06T09:52:31;5.82;;;4.10;;
69795;SDS011;57073;45.650;9.612;2023-04-06T09:57:47;8.63;;;3.87;;
69795;SDS011;57073;45.650;9.612;2023-04-06T10:03:02;7.32;;;4.43;;
69795;SDS011;57073;45.650;9.612;2023-04-06T10:08:09;7.72;;;4.20;;
69795;SDS011;57073;45.650;9.612;2023-04-06T10:13:11;9.00;;;4.10;;
69795;SDS011;57073;45.650;9.612;2023-04-06T10:18:12;8.32;;;4.00;;
69795;SDS011;57073;45.650;9.612;2023-04-06T10:23:15;7.00;;;4.20;;
69795;SDS011;57073;45.650;9.612;2023-04-06T10:28:21;6.37;;;4.20;;
69795;SDS011;57073;45.650;9.612;2023-04-06T10:33:22;8.00;;;4.68;;
69795;SDS011;57073;45.650;9.612;2023-04-06T10:38:36;5.80;;;4.13;;
69795;SDS011;57073;45.650;9.612;2023-04-06T10:43:39;7.03;;;4.80;;
69795;SDS011;57073;45.650;9.612;2023-04-06T10:48:41;9.43;;;4.83;;
69795;SDS011;57073;45.650;9.612;2023-04-06T10:53:44;10.88;;;5.25;;
69795;SDS011;57073;45.650;9.612;2023-04-06T10:58:47;7.97;;;4.60;;
69795;SDS011;57073;45.650;9.612;2023-04-06T11:03:50;8.20;;;4.60;;
69795;SDS011;57073;45.650;9.612;2023-04-06T11:08:52;8.40;;;5.50;;
69795;SDS011;57073;45.650;9.612;2023-04-06T11:13:54;9.93;;;5.50;;
69795;SDS011;57073;45.650;9.612;2023-04-06T11:19:00;9.47;;;5.70;;
69795;SDS011;57073;45.650;9.612;2023-04-06T11:29:13;9.90;;;5.70;;
69795;SDS011;57073;45.650;9.612;2023-04-06T11:34:22;10.00;;;5.40;;
69795;SDS011;57073;45.650;9.612;2023-04-06T11:39:23;8.43;;;5.68;;
69795;SDS011;57073;45.650;9.612;2023-04-06T11:49:33;10.30;;;5.80;;
69795;SDS011;57073;45.650;9.612;2023-04-06T11:54:37;11.02;;;6.05;;
69795;SDS011;57073;45.650;9.612;2023-04-06T11:59:37;14.30;;;6.30;;
69795;SDS011;57073;45.650;9.612;2023-04-06T12:04:38;8.57;;;5.80;;
69795;SDS011;57073;45.650;9.612;2023-04-06T12:09:38;10.50;;;5.80;;
69795;SDS011;57073;45.650;9.612;2023-04-06T12:14:39;10.98;;;6.47;;
69795;SDS011;57073;45.650;9.612;2023-04-06T12:19:40;17.50;;;6.43;;
69795;SDS011;57073;45.650;9.612;2023-04-06T12:24:40;10.23;;;6.63;;
69795;SDS011;57073;45.650;9.612;2023-04-06T12:29:42;9.83;;;5.80;;
69795;SDS011;57073;45.650;9.612;2023-04-06T12:34:43;11.20;;;6.37;;
69795;SDS011;57073;45.650;9.612;2023-04-06T12:39:43;14.47;;;5.77;;
69795;SDS011;57073;45.650;9.612;2023-04-06T12:44:44;12.98;;;7.70;;
69795;SDS011;57073;45.650;9.612;2023-04-06T12:49:47;11.57;;;6.45;;
69795;SDS011;57073;45.650;9.612;2023-04-06T12:54:47;10.33;;;6.40;;
69795;SDS011;57073;45.650;9.612;2023-04-06T12:59:48;10.37;;;6.80;;
69795;SDS011;57073;45.650;9.612;2023-04-06T13:04:48;17.80;;;7.83;;
69795;SDS011;57073;45.650;9.612;2023-04-06T13:09:50;12.23;;;6.88;;
69795;SDS011;57073;45.650;9.612;2023-04-06T13:14:51;11.73;;;7.33;;
69795;SDS011;57073;45.650;9.612;2023-04-06T13:19:52;16.17;;;7.83;;
69795;SDS011;57073;45.650;9.612;2023-04-06T13:24:52;14.53;;;7.20;;
69795;SDS011;57073;45.650;9.612;2023-04-06T13:29:53;11.47;;;7.07;;
69795;SDS011;57073;45.650;9.612;2023-04-06T13:34:56;12.60;;;7.10;;
69795;SDS011;57073;45.650;9.612;2023-04-06T13:39:57;10.80;;;6.73;;
69795;SDS011;57073;45.650;9.612;2023-04-06T13:44:57;13.57;;;7.03;;
69795;SDS011;57073;45.650;9.612;2023-04-06T13:49:59;11.98;;;6.90;;
69795;SDS011;57073;45.650;9.612;2023-04-06T13:54:59;12.87;;;7.00;;
69795;SDS011;57073;45.650;9.612;2023-04-06T14:00:00;15.20;;;7.83;;
69795;SDS011;57073;45.650;9.612;2023-04-06T14:05:00;17.57;;;7.43;;
69795;SDS011;57073;45.650;9.612;2023-04-06T14:10:01;12.30;;;6.90;;
69795;SDS011;57073;45.650;9.612;2023-04-06T14:15:01;12.68;;;6.57;;
69795;SDS011;57073;45.650;9.612;2023-04-06T14:20:03;13.20;;;7.27;;
69795;SDS011;57073;45.650;9.612;2023-04-06T14:25:05;11.57;;;6.88;;
69795;SDS011;57073;45.650;9.612;2023-04-06T14:30:06;14.50;;;7.40;;
69795;SDS011;57073;45.650;9.612;2023-04-06T14:35:07;12.15;;;6.85;;
69795;SDS011;57073;45.650;9.612;2023-04-06T14:40:08;13.27;;;7.10;;
69795;SDS011;57073;45.650;9.612;2023-04-06T14:45:08;14.33;;;7.47;;
69795;SDS011;57073;45.650;9.612;2023-04-06T14:50:09;11.70;;;7.37;;
69795;SDS011;57073;45.650;9.612;2023-04-06T14:55:10;14.68;;;7.90;;
69795;SDS011;57073;45.650;9.612;2023-04-06T15:00:10;13.20;;;7.60;;
69795;SDS011;57073;45.650;9.612;2023-04-06T15:05:11;13.87;;;7.87;;
69795;SDS011;57073;45.650;9.612;2023-04-06T15:10:12;13.47;;;7.20;;
69795;SDS011;57073;45.650;9.612;2023-04-06T15:15:12;19.05;;;8.23;;
69795;SDS011;57073;45.650;9.612;2023-04-06T15:20:12;17.10;;;8.03;;
69795;SDS011;57073;45.650;9.612;2023-04-06T15:25:13;12.87;;;7.33;;
69795;SDS011;57073;45.650;9.612;2023-04-06T15:30:13;14.47;;;8.03;;
69795;SDS011;57073;45.650;9.612;2023-04-06T15:35:13;12.87;;;7.17;;
69795;SDS011;57073;45.650;9.612;2023-04-06T15:40:14;13.52;;;7.55;;
69795;SDS011;57073;45.650;9.612;2023-04-06T15:45:15;14.53;;;6.70;;
69795;SDS011;57073;45.650;9.612;2023-04-06T15:50:16;12.55;;;7.38;;
69795;SDS011;57073;45.650;9.612;2023-04-06T15:55:18;12.27;;;7.60;;
69795;SDS011;57073;45.650;9.612;2023-04-06T16:00:19;13.43;;;7.50;;
69795;SDS011;57073;45.650;9.612;2023-04-06T16:05:19;13.97;;;7.63;;
69795;SDS011;57073;45.650;9.612;2023-04-06T16:10:20;12.03;;;7.40;;
69795;SDS011;57073;45.650;9.612;2023-04-06T16:15:20;12.38;;;7.63;;
69795;SDS011;57073;45.650;9.612;2023-04-06T16:20:21;13.00;;;7.80;;
69795;SDS011;57073;45.650;9.612;2023-04-06T16:25:21;13.53;;;7.07;;
69795;SDS011;57073;45.650;9.612;2023-04-06T16:30:21;12.40;;;7.37;;
69795;SDS011;57073;45.650;9.612;2023-04-06T16:35:23;14.57;;;7.15;;
69795;SDS011;57073;45.650;9.612;2023-04-06T16:40:25;12.40;;;7.40;;
69795;SDS011;57073;45.650;9.612;2023-04-06T16:45:25;13.60;;;6.73;;
69795;SDS011;57073;45.650;9.612;2023-04-06T16:50:26;13.23;;;6.83;;
69795;SDS011;57073;45.650;9.612;2023-04-06T16:55:26;11.80;;;6.90;;
69795;SDS011;57073;45.650;9.612;2023-04-06T17:00:28;12.20;;;6.65;;
69795;SDS011;57073;45.650;9.612;2023-04-06T17:05:28;12.23;;;6.80;;
69795;SDS011;57073;45.650;9.612;2023-04-06T17:10:29;10.70;;;6.30;;
69795;SDS011;57073;45.650;9.612;2023-04-06T17:15:30;9.87;;;6.17;;
69795;SDS011;57073;45.650;9.612;2023-04-06T17:20:30;10.80;;;5.93;;
69795;SDS011;57073;45.650;9.612;2023-04-06T17:25:31;12.20;;;7.07;;
69795;SDS011;57073;45.650;9.612;2023-04-06T17:30:31;11.73;;;6.27;;
69795;SDS011;57073;45.650;9.612;2023-04-06T17:35:33;10.80;;;5.93;;
69795;SDS011;57073;45.650;9.612;2023-04-06T17:40:33;11.50;;;6.30;;
69795;SDS011;57073;45.650;9.612;2023-04-06T17:45:35;14.15;;;6.53;;
69795;SDS011;57073;45.650;9.612;2023-04-06T17:50:36;15.50;;;6.47;;
69795;SDS011;57073;45.650;9.612;2023-04-06T17:55:37;12.75;;;6.35;;
69795;SDS011;57073;45.650;9.612;2023-04-06T18:00:38;12.20;;;6.10;;
69795;SDS011;57073;45.650;9.612;2023-04-06T18:05:38;12.67;;;7.53;;
69795;SDS011;57073;45.650;9.612;2023-04-06T18:10:39;14.47;;;8.20;;
69795;SDS011;57073;45.650;9.612;2023-04-06T18:15:39;19.47;;;9.37;;
69795;SDS011;57073;45.650;9.612;2023-04-06T18:20:40;17.63;;;8.43;;
69795;SDS011;57073;45.650;9.612;2023-04-06T18:25:40;21.47;;;9.20;;
69795;SDS011;57073;45.650;9.612;2023-04-06T18:30:41;16.92;;;8.88;;
69795;SDS011;57073;45.650;9.612;2023-04-06T18:35:41;17.13;;;9.43;;
69795;SDS011;57073;45.650;9.612;2023-04-06T18:40:41;17.97;;;9.33;;
69795;SDS011;57073;45.650;9.612;2023-04-06T18:45:42;19.67;;;9.50;;
69795;SDS011;57073;45.650;9.612;2023-04-06T18:50:56;17.70;;;9.17;;
69795;SDS011;57073;45.650;9.612;2023-04-06T18:56:00;17.97;;;9.47;;
69795;SDS011;57073;45.650;9.612;2023-04-06T19:01:00;19.42;;;8.90;;
69795;SDS011;57073;45.650;9.612;2023-04-06T19:06:03;19.73;;;9.47;;
69795;SDS011;57073;45.650;9.612;2023-04-06T19:11:06;21.65;;;9.70;;
69795;SDS011;57073;45.650;9.612;2023-04-06T19:16:09;18.70;;;9.97;;
69795;SDS011;57073;45.650;9.612;2023-04-06T19:21:23;18.85;;;10.15;;
69795;SDS011;57073;45.650;9.612;2023-04-06T19:26:27;19.03;;;10.40;;
69795;SDS011;57073;45.650;9.612;2023-04-06T19:31:29;21.00;;;10.07;;
69795;SDS011;57073;45.650;9.612;2023-04-06T19:36:29;22.27;;;9.60;;
69795;SDS011;57073;45.650;9.612;2023-04-06T19:41:31;25.17;;;9.80;;
69795;SDS011;57073;45.650;9.612;2023-04-06T19:46:31;19.40;;;10.43;;
69795;SDS011;57073;45.650;9.612;2023-04-06T19:51:32;20.33;;;9.73;;
69795;SDS011;57073;45.650;9.612;2023-04-06T19:56:33;21.50;;;9.93;;
69795;SDS011;57073;45.650;9.612;2023-04-06T20:01:33;21.33;;;10.13;;
69795;SDS011;57073;45.650;9.612;2023-04-06T20:06:33;19.23;;;9.70;;
69795;SDS011;57073;45.650;9.612;2023-04-06T20:11:34;20.70;;;10.67;;
69795;SDS011;57073;45.650;9.612;2023-04-06T20:16:35;25.92;;;11.95;;
69795;SDS011;57073;45.650;9.612;2023-04-06T20:21:35;18.47;;;9.97;;
69795;SDS011;57073;45.650;9.612;2023-04-06T20:26:36;22.60;;;10.60;;
69795;SDS011;57073;45.650;9.612;2023-04-06T20:31:36;23.30;;;10.90;;
69795;SDS011;57073;45.650;9.612;2023-04-06T20:36:36;19.37;;;11.07;;
69795;SDS011;57073;45.650;9.612;2023-04-06T20:41:38;22.93;;;10.77;;
69795;SDS011;57073;45.650;9.612;2023-04-06T20:46:39;24.85;;;11.65;;
69795;SDS011;57073;45.650;9.612;2023-04-06T20:51:39;24.47;;;10.93;;
69795;SDS011;57073;45.650;9.612;2023-04-06T20:56:41;21.07;;;11.20;;
69795;SDS011;57073;45.650;9.612;2023-04-06T21:01:41;25.00;;;11.37;;
69795;SDS011;57073;45.650;9.612;2023-04-06T21:06:42;22.05;;;11.43;;
69795;SDS011;57073;45.650;9.612;2023-04-06T21:11:42;25.10;;;11.53;;
69795;SDS011;57073;45.650;9.612;2023-04-06T21:16:43;20.77;;;11.43;;
69795;SDS011;57073;45.650;9.612;2023-04-06T21:21:43;23.17;;;11.73;;
69795;SDS011;57073;45.650;9.612;2023-04-06T21:26:43;25.57;;;12.30;;
69795;SDS011;57073;45.650;9.612;2023-04-06T21:31:44;23.20;;;11.80;;
69795;SDS011;57073;45.650;9.612;2023-04-06T21:36:44;23.88;;;12.02;;
69795;SDS011;57073;45.650;9.612;2023-04-06T21:41:45;22.40;;;12.07;;
69795;SDS011;57073;45.650;9.612;2023-04-06T21:46:45;21.73;;;11.33;;
69795;SDS011;57073;45.650;9.612;2023-04-06T21:51:46;20.93;;;11.20;;
69795;SDS011;57073;45.650;9.612;2023-04-06T21:56:46;19.08;;;10.73;;
69795;SDS011;57073;45.650;9.612;2023-04-06T22:01:47;19.88;;;10.65;;
69795;SDS011;57073;45.650;9.612;2023-04-06T22:06:47;19.37;;;10.50;;
69795;SDS011;57073;45.650;9.612;2023-04-06T22:11:48;21.90;;;11.10;;
69795;SDS011;57073;45.650;9.612;2023-04-06T22:16:48;20.33;;;10.67;;
69795;SDS011;57073;45.650;9.612;2023-04-06T22:21:49;20.33;;;11.43;;
69795;SDS011;57073;45.650;9.612;2023-04-06T22:26:49;20.15;;;11.52;;
69795;SDS011;57073;45.650;9.612;2023-04-06T22:31:50;21.87;;;11.00;;
69795;SDS011;57073;45.650;9.612;2023-04-06T22:36:50;21.20;;;10.87;;
69795;SDS011;57073;45.650;9.612;2023-04-06T22:41:51;17.70;;;10.27;;
69795;SDS011;57073;45.650;9.612;2023-04-06T22:46:51;18.00;;;10.03;;
69795;SDS011;57073;45.650;9.612;2023-04-06T22:51:51;18.23;;;10.30;;
69795;SDS011;57073;45.650;9.612;2023-04-06T22:56:52;17.70;;;10.07;;
69795;SDS011;57073;45.650;9.612;2023-04-06T23:01:52;20.93;;;9.70;;
69795;SDS011;57073;45.650;9.612;2023-04-06T23:06:53;19.40;;;10.07;;
69795;SDS011;57073;45.650;9.612;2023-04-06T23:11:53;16.57;;;9.30;;
69795;SDS011;57073;45.650;9.612;2023-04-06T23:16:53;18.13;;;9.10;;
69795;SDS011;57073;45.650;9.612;2023-04-06T23:21:54;18.58;;;9.75;;
69795;SDS011;57073;45.650;9.612;2023-04-06T23:26:55;17.90;;;10.37;;
69795;SDS011;57073;45.650;9.612;2023-04-06T23:31:55;16.33;;;9.13;;
69795;SDS011;57073;45.650;9.612;2023-04-06T23:36:55;18.27;;;9.50;;
69795;SDS011;57073;45.650;9.612;2023-04-06T23:42:00;16.70;;;9.30;;
69795;SDS011;57073;45.650;9.612;2023-04-06T23:47:00;20.33;;;9.97;;
69795;SDS011;57073;45.650;9.612;2023-04-06T23:52:01;19.50;;;9.50;;
69795;SDS011;57073;45.650;9.612;2023-04-06T23:57:01;21.00;;;9.70;;
